sensor_id;sensor_type;location;lat;lon;timestamp;pressure;altitude;pressure_sealevel;temperature;humidity
56825;BME280;42705;50.326;18.772;2023-04-29T00:03:11;98229.04;;;11.79;41.89
56825;BME280;42705;50.326;18.772;2023-04-29T00:08:33;98227.12;;;11.77;41.96
56825;BME280;42705;50.326;18.772;2023-04-29T00:13:54;98221.56;;;11.72;41.82
56825;BME280;42705;50.326;18.772;2023-04-29T00:19:16;98220.55;;;11.68;41.80
56825;BME280;42705;50.326;18.772;2023-04-29T00:24:38;98220.73;;;11.65;41.66
56825;BME280;42705;50.326;18.772;2023-04-29T00:30:00;98215.27;;;11.62;41.81
56825;BME280;42705;50.326;18.772;2023-04-29T00:35:22;98211.68;;;11.59;41.90
56825;BME280;42705;50.326;18.772;2023-04-29T00:40:44;98206.11;;;11.57;41.68
56825;BME280;42705;50.326;18.772;2023-04-29T00:46:06;98203.54;;;11.55;41.86
56825;BME280;42705;50.326;18.772;2023-04-29T00:51:28;98208.04;;;11.53;41.80
56825;BME280;42705;50.326;18.772;2023-04-29T00:56:50;98206.86;;;11.53;42.22
56825;BME280;42705;50.326;18.772;2023-04-29T01:02:12;98208.66;;;11.53;42.49
56825;BME280;42705;50.326;18.772;2023-04-29T01:07:42;98209.62;;;11.53;42.44
56825;BME280;42705;50.326;18.772;2023-04-29T01:18:42;98211.69;;;11.57;42.73
56825;BME280;42705;50.326;18.772;2023-04-29T01:24:12;98208.52;;;11.57;43.29
56825;BME280;42705;50.326;18.772;2023-04-29T01:29:58;98202.52;;;11.58;43.51
56825;BME280;42705;50.326;18.772;2023-04-29T01:40:46;98200.21;;;11.56;43.89
56825;BME280;42705;50.326;18.772;2023-04-29T01:46:16;98203.91;;;11.53;44.23
56825;BME280;42705;50.326;18.772;2023-04-29T01:51:39;98197.46;;;11.51;44.57
56825;BME280;42705;50.326;18.772;2023-04-29T01:57:01;98196.09;;;11.50;44.89
56825;BME280;42705;50.326;18.772;2023-04-29T02:02:32;98194.67;;;11.49;45.14
56825;BME280;42705;50.326;18.772;2023-04-29T02:08:02;98192.78;;;11.47;45.65
56825;BME280;42705;50.326;18.772;2023-04-29T02:13:26;98190.98;;;11.42;45.89
56825;BME280;42705;50.326;18.772;2023-04-29T02:18:49;98186.13;;;11.38;46.21
56825;BME280;42705;50.326;18.772;2023-04-29T02:24:11;98178.40;;;11.36;46.36
56825;BME280;42705;50.326;18.772;2023-04-29T02:29:32;98176.44;;;11.32;46.48
56825;BME280;42705;50.326;18.772;2023-04-29T02:34:54;98179.09;;;11.27;46.73
56825;BME280;42705;50.326;18.772;2023-04-29T02:40:16;98179.36;;;11.25;47.17
56825;BME280;42705;50.326;18.772;2023-04-29T02:45:38;98176.86;;;11.24;47.07
56825;BME280;42705;50.326;18.772;2023-04-29T02:51:01;98173.73;;;11.20;47.30
56825;BME280;42705;50.326;18.772;2023-04-29T02:56:23;98169.55;;;11.16;47.71
56825;BME280;42705;50.326;18.772;2023-04-29T03:01:44;98171.95;;;11.14;48.03
56825;BME280;42705;50.326;18.772;2023-04-29T03:07:07;98171.56;;;11.13;47.88
56825;BME280;42705;50.326;18.772;2023-04-29T03:12:28;98162.45;;;11.12;47.70
56825;BME280;42705;50.326;18.772;2023-04-29T03:17:50;98156.50;;;11.10;48.33
56825;BME280;42705;50.326;18.772;2023-04-29T03:23:13;98154.80;;;11.08;48.48
56825;BME280;42705;50.326;18.772;2023-04-29T03:28:34;98154.13;;;11.04;48.80
56825;BME280;42705;50.326;18.772;2023-04-29T03:33:56;98149.61;;;11.02;49.13
56825;BME280;42705;50.326;18.772;2023-04-29T03:39:19;98147.15;;;10.98;49.95
56825;BME280;42705;50.326;18.772;2023-04-29T03:44:41;98142.55;;;10.97;50.03
56825;BME280;42705;50.326;18.772;2023-04-29T03:50:04;98144.59;;;10.94;50.25
56825;BME280;42705;50.326;18.772;2023-04-29T03:55:26;98149.55;;;10.91;50.56
56825;BME280;42705;50.326;18.772;2023-04-29T04:00:49;98148.96;;;10.92;50.67
56825;BME280;42705;50.326;18.772;2023-04-29T04:06:14;98147.72;;;10.92;50.86
56825;BME280;42705;50.326;18.772;2023-04-29T04:11:37;98145.27;;;10.94;50.86
56825;BME280;42705;50.326;18.772;2023-04-29T04:17:00;98143.81;;;10.98;50.38
56825;BME280;42705;50.326;18.772;2023-04-29T04:22:22;98146.55;;;11.01;50.43
56825;BME280;42705;50.326;18.772;2023-04-29T04:27:59;98148.23;;;11.02;50.71
56825;BME280;42705;50.326;18.772;2023-04-29T04:33:34;98145.70;;;11.04;50.63
56825;BME280;42705;50.326;18.772;2023-04-29T04:38:57;98149.61;;;11.07;50.33
56825;BME280;42705;50.326;18.772;2023-04-29T04:44:19;98153.53;;;11.08;50.46
56825;BME280;42705;50.326;18.772;2023-04-29T04:50:02;98152.79;;;11.10;50.55
56825;BME280;42705;50.326;18.772;2023-04-29T04:55:25;98153.56;;;11.11;50.58
56825;BME280;42705;50.326;18.772;2023-04-29T05:00:47;98155.13;;;11.11;50.51
56825;BME280;42705;50.326;18.772;2023-04-29T05:06:09;98156.05;;;11.13;50.90
56825;BME280;42705;50.326;18.772;2023-04-29T05:11:31;98155.52;;;11.14;50.66
56825;BME280;42705;50.326;18.772;2023-04-29T05:17:07;98150.52;;;11.16;50.83
56825;BME280;42705;50.326;18.772;2023-04-29T05:22:30;98149.65;;;11.15;50.96
56825;BME280;42705;50.326;18.772;2023-04-29T05:27:52;98152.02;;;11.13;50.73
56825;BME280;42705;50.326;18.772;2023-04-29T05:33:15;98154.20;;;11.10;51.07
56825;BME280;42705;50.326;18.772;2023-04-29T05:38:38;98153.37;;;11.08;51.32
56825;BME280;42705;50.326;18.772;2023-04-29T05:44:04;98151.29;;;11.10;51.51
56825;BME280;42705;50.326;18.772;2023-04-29T05:49:26;98152.78;;;11.12;51.76
56825;BME280;42705;50.326;18.772;2023-04-29T05:54:48;98151.59;;;11.12;52.06
56825;BME280;42705;50.326;18.772;2023-04-29T06:00:10;98149.11;;;11.12;52.13
56825;BME280;42705;50.326;18.772;2023-04-29T06:05:38;98150.28;;;11.16;52.36
56825;BME280;42705;50.326;18.772;2023-04-29T06:11:18;98147.70;;;11.18;52.66
56825;BME280;42705;50.326;18.772;2023-04-29T06:16:40;98149.48;;;11.15;52.82
56825;BME280;42705;50.326;18.772;2023-04-29T06:22:03;98152.08;;;11.18;53.08
56825;BME280;42705;50.326;18.772;2023-04-29T06:27:26;98149.30;;;11.27;53.19
56825;BME280;42705;50.326;18.772;2023-04-29T06:32:50;98146.04;;;11.38;53.60
56825;BME280;42705;50.326;18.772;2023-04-29T06:38:12;98144.50;;;11.49;53.68
56825;BME280;42705;50.326;18.772;2023-04-29T06:43:53;98147.19;;;11.57;54.08
56825;BME280;42705;50.326;18.772;2023-04-29T06:49:46;98146.27;;;11.64;54.22
56825;BME280;42705;50.326;18.772;2023-04-29T06:55:08;98152.62;;;11.72;54.14
56825;BME280;42705;50.326;18.772;2023-04-29T07:00:29;98156.39;;;11.82;53.96
56825;BME280;42705;50.326;18.772;2023-04-29T07:05:52;98151.07;;;11.99;54.01
56825;BME280;42705;50.326;18.772;2023-04-29T07:11:14;98146.97;;;12.10;53.97
56825;BME280;42705;50.326;18.772;2023-04-29T07:16:35;98148.72;;;12.15;53.68
56825;BME280;42705;50.326;18.772;2023-04-29T07:21:57;98149.39;;;12.21;53.58
56825;BME280;42705;50.326;18.772;2023-04-29T07:27:19;98150.89;;;12.35;53.79
56825;BME280;42705;50.326;18.772;2023-04-29T07:32:41;98148.60;;;12.52;53.71
56825;BME280;42705;50.326;18.772;2023-04-29T07:38:03;98146.54;;;12.67;53.40
56825;BME280;42705;50.326;18.772;2023-04-29T07:43:25;98143.25;;;12.82;53.51
56825;BME280;42705;50.326;18.772;2023-04-29T07:48:47;98141.88;;;12.92;53.33
56825;BME280;42705;50.326;18.772;2023-04-29T07:54:09;98139.94;;;12.90;53.42
56825;BME280;42705;50.326;18.772;2023-04-29T07:59:31;98140.30;;;12.85;53.87
56825;BME280;42705;50.326;18.772;2023-04-29T08:04:53;98147.98;;;12.87;53.87
56825;BME280;42705;50.326;18.772;2023-04-29T08:10:17;98146.30;;;12.95;54.03
56825;BME280;42705;50.326;18.772;2023-04-29T08:15:39;98142.23;;;13.19;53.80
56825;BME280;42705;50.326;18.772;2023-04-29T08:21:01;98148.75;;;13.53;53.34
56825;BME280;42705;50.326;18.772;2023-04-29T08:26:23;98145.17;;;13.85;53.06
56825;BME280;42705;50.326;18.772;2023-04-29T08:31:45;98145.86;;;14.14;52.76
56825;BME280;42705;50.326;18.772;2023-04-29T08:37:07;98146.44;;;14.28;52.20
56825;BME280;42705;50.326;18.772;2023-04-29T08:42:32;98152.12;;;14.26;51.58
56825;BME280;42705;50.326;18.772;2023-04-29T08:47:55;98150.69;;;14.16;51.45
56825;BME280;42705;50.326;18.772;2023-04-29T08:53:17;98153.02;;;14.29;51.61
56825;BME280;42705;50.326;18.772;2023-04-29T08:58:39;98152.61;;;14.37;51.68
56825;BME280;42705;50.326;18.772;2023-04-29T09:09:28;98142.35;;;14.49;52.08
56825;BME280;42705;50.326;18.772;2023-04-29T09:14:51;98143.39;;;14.73;51.91
56825;BME280;42705;50.326;18.772;2023-04-29T09:25:40;98146.77;;;14.82;51.62
56825;BME280;42705;50.326;18.772;2023-04-29T09:31:02;98146.38;;;14.76;51.72
56825;BME280;42705;50.326;18.772;2023-04-29T09:36:38;98141.31;;;14.53;51.89
56825;BME280;42705;50.326;18.772;2023-04-29T09:42:01;98146.58;;;14.18;52.44
56825;BME280;42705;50.326;18.772;2023-04-29T09:47:28;98154.41;;;13.98;52.76
56825;BME280;42705;50.326;18.772;2023-04-29T09:52:50;98155.11;;;13.84;52.99
56825;BME280;42705;50.326;18.772;2023-04-29T09:58:26;98153.45;;;13.73;53.33
56825;BME280;42705;50.326;18.772;2023-04-29T10:03:48;98157.52;;;13.66;53.56
56825;BME280;42705;50.326;18.772;2023-04-29T10:09:14;98155.58;;;13.60;53.80
56825;BME280;42705;50.326;18.772;2023-04-29T10:14:38;98160.95;;;13.55;53.99
56825;BME280;42705;50.326;18.772;2023-04-29T10:20:03;98157.38;;;13.48;54.38
56825;BME280;42705;50.326;18.772;2023-04-29T10:25:28;98158.01;;;13.37;54.59
56825;BME280;42705;50.326;18.772;2023-04-29T10:30:50;98166.07;;;13.28;54.96
56825;BME280;42705;50.326;18.772;2023-04-29T10:36:14;98160.36;;;13.24;55.08
56825;BME280;42705;50.326;18.772;2023-04-29T10:41:38;98160.89;;;13.24;55.33
56825;BME280;42705;50.326;18.772;2023-04-29T10:47:18;98160.88;;;13.26;55.66
56825;BME280;42705;50.326;18.772;2023-04-29T10:52:50;98151.92;;;13.35;55.88
56825;BME280;42705;50.326;18.772;2023-04-29T11:03:53;98152.80;;;13.36;55.70
56825;BME280;42705;50.326;18.772;2023-04-29T11:14:49;98150.85;;;13.15;56.16
56825;BME280;42705;50.326;18.772;2023-04-29T11:20:14;98145.41;;;13.07;56.52
56825;BME280;42705;50.326;18.772;2023-04-29T11:25:36;98145.24;;;13.07;56.86
56825;BME280;42705;50.326;18.772;2023-04-29T11:30:59;98158.36;;;13.07;57.91
56825;BME280;42705;50.326;18.772;2023-04-29T11:36:21;98165.05;;;12.85;59.48
56825;BME280;42705;50.326;18.772;2023-04-29T11:41:43;98171.20;;;12.51;61.52
56825;BME280;42705;50.326;18.772;2023-04-29T11:47:05;98163.67;;;12.37;62.40
56825;BME280;42705;50.326;18.772;2023-04-29T11:52:28;98159.73;;;12.50;63.00
56825;BME280;42705;50.326;18.772;2023-04-29T11:57:49;98166.09;;;12.83;63.00
56825;BME280;42705;50.326;18.772;2023-04-29T12:03:13;98164.94;;;13.23;62.50
56825;BME280;42705;50.326;18.772;2023-04-29T12:08:36;98161.07;;;13.79;61.98
56825;BME280;42705;50.326;18.772;2023-04-29T12:13:57;98161.27;;;14.57;61.12
56825;BME280;42705;50.326;18.772;2023-04-29T12:19:23;98156.75;;;15.37;60.25
56825;BME280;42705;50.326;18.772;2023-04-29T12:24:45;98147.30;;;16.18;60.22
56825;BME280;42705;50.326;18.772;2023-04-29T12:30:07;98138.13;;;16.78;59.58
56825;BME280;42705;50.326;18.772;2023-04-29T12:35:30;98131.31;;;17.39;58.56
56825;BME280;42705;50.326;18.772;2023-04-29T12:41:04;98128.23;;;17.72;57.27
56825;BME280;42705;50.326;18.772;2023-04-29T12:46:28;98122.97;;;17.29;55.42
56825;BME280;42705;50.326;18.772;2023-04-29T12:51:54;98121.89;;;16.92;55.18
56825;BME280;42705;50.326;18.772;2023-04-29T12:57:16;98113.42;;;16.51;54.39
56825;BME280;42705;50.326;18.772;2023-04-29T13:02:38;98110.59;;;16.07;54.21
56825;BME280;42705;50.326;18.772;2023-04-29T13:08:00;98112.66;;;15.64;53.90
56825;BME280;42705;50.326;18.772;2023-04-29T13:13:22;98108.11;;;15.31;54.21
56825;BME280;42705;50.326;18.772;2023-04-29T13:18:44;98112.17;;;15.06;54.18
56825;BME280;42705;50.326;18.772;2023-04-29T13:24:05;98101.19;;;14.87;54.50
56825;BME280;42705;50.326;18.772;2023-04-29T13:29:28;98105.33;;;14.78;54.75
56825;BME280;42705;50.326;18.772;2023-04-29T13:34:50;98103.95;;;14.72;54.80
56825;BME280;42705;50.326;18.772;2023-04-29T13:40:11;98102.16;;;14.66;54.75
56825;BME280;42705;50.326;18.772;2023-04-29T13:45:33;98101.47;;;14.61;54.65
56825;BME280;42705;50.326;18.772;2023-04-29T13:50:56;98104.48;;;14.57;55.10
56825;BME280;42705;50.326;18.772;2023-04-29T13:56:17;98103.58;;;14.53;55.74
56825;BME280;42705;50.326;18.772;2023-04-29T14:01:39;98101.70;;;14.54;56.25
56825;BME280;42705;50.326;18.772;2023-04-29T14:07:02;98105.25;;;14.58;56.81
56825;BME280;42705;50.326;18.772;2023-04-29T14:12:23;98105.63;;;14.63;56.81
56825;BME280;42705;50.326;18.772;2023-04-29T14:17:46;98107.02;;;14.71;57.25
56825;BME280;42705;50.326;18.772;2023-04-29T14:23:10;98114.31;;;14.84;57.86
56825;BME280;42705;50.326;18.772;2023-04-29T14:28:32;98108.26;;;15.02;57.92
56825;BME280;42705;50.326;18.772;2023-04-29T14:33:54;98110.46;;;15.21;58.71
56825;BME280;42705;50.326;18.772;2023-04-29T14:39:16;98109.54;;;15.44;58.94
56825;BME280;42705;50.326;18.772;2023-04-29T14:44:38;98105.21;;;15.56;58.39
56825;BME280;42705;50.326;18.772;2023-04-29T14:50:00;98102.23;;;15.62;57.98
56825;BME280;42705;50.326;18.772;2023-04-29T14:55:22;98099.02;;;15.64;57.40
56825;BME280;42705;50.326;18.772;2023-04-29T15:00:44;98089.60;;;15.58;57.37
56825;BME280;42705;50.326;18.772;2023-04-29T15:06:06;98090.45;;;15.68;57.10
56825;BME280;42705;50.326;18.772;2023-04-29T15:11:28;98098.71;;;15.51;56.75
56825;BME280;42705;50.326;18.772;2023-04-29T15:16:49;98102.92;;;15.32;56.67
56825;BME280;42705;50.326;18.772;2023-04-29T15:22:11;98105.59;;;15.13;56.82
56825;BME280;42705;50.326;18.772;2023-04-29T15:27:34;98112.58;;;14.98;57.04
56825;BME280;42705;50.326;18.772;2023-04-29T15:32:55;98118.50;;;14.81;57.10
56825;BME280;42705;50.326;18.772;2023-04-29T15:38:17;98122.83;;;14.66;57.33
56825;BME280;42705;50.326;18.772;2023-04-29T15:43:39;98125.30;;;14.60;57.94
56825;BME280;42705;50.326;18.772;2023-04-29T15:49:01;98128.00;;;14.59;58.27
56825;BME280;42705;50.326;18.772;2023-04-29T15:54:24;98126.48;;;14.60;58.51
56825;BME280;42705;50.326;18.772;2023-04-29T15:59:47;98135.79;;;14.59;59.06
56825;BME280;42705;50.326;18.772;2023-04-29T16:05:09;98139.23;;;14.67;59.16
56825;BME280;42705;50.326;18.772;2023-04-29T16:10:31;98131.86;;;15.03;59.11
56825;BME280;42705;50.326;18.772;2023-04-29T16:15:53;98125.17;;;16.10;57.45
56825;BME280;42705;50.326;18.772;2023-04-29T16:21:15;98129.20;;;15.78;57.40
56825;BME280;42705;50.326;18.772;2023-04-29T16:26:37;98130.59;;;15.30;57.81
56825;BME280;42705;50.326;18.772;2023-04-29T16:32:00;98143.48;;;14.67;57.91
56825;BME280;42705;50.326;18.772;2023-04-29T16:37:22;98146.23;;;14.15;59.01
56825;BME280;42705;50.326;18.772;2023-04-29T16:42:44;98141.59;;;13.82;60.02
56825;BME280;42705;50.326;18.772;2023-04-29T16:48:08;98143.63;;;13.67;60.84
56825;BME280;42705;50.326;18.772;2023-04-29T16:53:30;98143.16;;;13.53;61.56
56825;BME280;42705;50.326;18.772;2023-04-29T16:58:52;98149.27;;;13.42;62.24
56825;BME280;42705;50.326;18.772;2023-04-29T17:04:15;98151.77;;;13.26;63.04
56825;BME280;42705;50.326;18.772;2023-04-29T17:09:36;98149.04;;;13.19;63.72
56825;BME280;42705;50.326;18.772;2023-04-29T17:14:58;98151.57;;;13.18;63.93
56825;BME280;42705;50.326;18.772;2023-04-29T17:20:20;98157.06;;;13.14;64.24
56825;BME280;42705;50.326;18.772;2023-04-29T17:25:42;98160.51;;;13.11;64.51
56825;BME280;42705;50.326;18.772;2023-04-29T17:31:04;98164.52;;;13.07;64.91
56825;BME280;42705;50.326;18.772;2023-04-29T17:36:26;98168.26;;;13.04;65.07
56825;BME280;42705;50.326;18.772;2023-04-29T17:41:48;98172.95;;;13.05;65.29
56825;BME280;42705;50.326;18.772;2023-04-29T17:47:12;98175.02;;;13.05;65.51
56825;BME280;42705;50.326;18.772;2023-04-29T17:52:35;98175.25;;;13.01;65.76
56825;BME280;42705;50.326;18.772;2023-04-29T17:57:57;98179.09;;;12.98;65.94
56825;BME280;42705;50.326;18.772;2023-04-29T18:03:19;98183.33;;;12.94;66.26
56825;BME280;42705;50.326;18.772;2023-04-29T18:08:41;98189.63;;;12.89;66.75
56825;BME280;42705;50.326;18.772;2023-04-29T18:14:03;98197.77;;;12.87;67.09
56825;BME280;42705;50.326;18.772;2023-04-29T18:19:28;98198.19;;;12.83;67.31
56825;BME280;42705;50.326;18.772;2023-04-29T18:24:50;98201.51;;;12.83;67.63
56825;BME280;42705;50.326;18.772;2023-04-29T18:30:12;98204.70;;;12.83;67.82
56825;BME280;42705;50.326;18.772;2023-04-29T18:35:37;98213.44;;;12.81;68.12
56825;BME280;42705;50.326;18.772;2023-04-29T18:41:00;98223.79;;;12.84;68.17
56825;BME280;42705;50.326;18.772;2023-04-29T18:46:21;98228.61;;;12.90;68.34
56825;BME280;42705;50.326;18.772;2023-04-29T18:51:44;98236.96;;;12.96;68.34
56825;BME280;42705;50.326;18.772;2023-04-29T18:57:07;98244.29;;;12.96;68.41
56825;BME280;42705;50.326;18.772;2023-04-29T19:02:29;98246.06;;;12.90;68.67
56825;BME280;42705;50.326;18.772;2023-04-29T19:07:51;98257.23;;;12.85;68.87
56825;BME280;42705;50.326;18.772;2023-04-29T19:13:13;98269.98;;;12.85;69.17
56825;BME280;42705;50.326;18.772;2023-04-29T19:18:35;98279.81;;;12.82;69.08
56825;BME280;42705;50.326;18.772;2023-04-29T19:23:57;98286.35;;;12.67;69.39
56825;BME280;42705;50.326;18.772;2023-04-29T19:29:20;98284.55;;;12.52;69.39
56825;BME280;42705;50.326;18.772;2023-04-29T19:34:44;98288.36;;;12.42;69.17
56825;BME280;42705;50.326;18.772;2023-04-29T19:40:07;98293.31;;;12.35;69.06
56825;BME280;42705;50.326;18.772;2023-04-29T19:45:31;98290.36;;;12.25;69.02
56825;BME280;42705;50.326;18.772;2023-04-29T19:50:53;98293.94;;;12.14;68.83
56825;BME280;42705;50.326;18.772;2023-04-29T19:56:15;98301.22;;;12.08;69.02
56825;BME280;42705;50.326;18.772;2023-04-29T20:01:38;98301.61;;;12.02;69.19
56825;BME280;42705;50.326;18.772;2023-04-29T20:07:02;98301.88;;;11.90;69.14
56825;BME280;42705;50.326;18.772;2023-04-29T20:12:24;98305.70;;;11.82;69.38
56825;BME280;42705;50.326;18.772;2023-04-29T20:17:47;98308.35;;;11.83;69.47
56825;BME280;42705;50.326;18.772;2023-04-29T20:23:10;98309.98;;;11.82;69.56
56825;BME280;42705;50.326;18.772;2023-04-29T20:28:34;98314.36;;;11.80;69.60
56825;BME280;42705;50.326;18.772;2023-04-29T20:33:57;98315.30;;;11.82;70.07
56825;BME280;42705;50.326;18.772;2023-04-29T20:39:20;98311.48;;;11.81;70.40
56825;BME280;42705;50.326;18.772;2023-04-29T20:44:42;98307.12;;;11.85;70.49
56825;BME280;42705;50.326;18.772;2023-04-29T20:50:05;98305.72;;;11.90;70.55
56825;BME280;42705;50.326;18.772;2023-04-29T20:55:29;98308.52;;;11.96;70.88
56825;BME280;42705;50.326;18.772;2023-04-29T21:00:50;98311.32;;;11.97;70.86
56825;BME280;42705;50.326;18.772;2023-04-29T21:06:12;98317.77;;;11.99;71.02
56825;BME280;42705;50.326;18.772;2023-04-29T21:11:34;98325.30;;;11.99;71.16
56825;BME280;42705;50.326;18.772;2023-04-29T21:16:59;98332.18;;;11.95;71.43
56825;BME280;42705;50.326;18.772;2023-04-29T21:22:21;98330.69;;;11.96;71.50
56825;BME280;42705;50.326;18.772;2023-04-29T21:27:43;98331.48;;;11.99;71.74
56825;BME280;42705;50.326;18.772;2023-04-29T21:33:05;98333.09;;;11.98;71.89
56825;BME280;42705;50.326;18.772;2023-04-29T21:38:26;98337.02;;;11.96;71.84
56825;BME280;42705;50.326;18.772;2023-04-29T21:43:48;98340.79;;;11.93;71.82
56825;BME280;42705;50.326;18.772;2023-04-29T21:49:11;98338.82;;;11.81;72.02
56825;BME280;42705;50.326;18.772;2023-04-29T21:54:32;98345.80;;;11.70;72.19
56825;BME280;42705;50.326;18.772;2023-04-29T21:59:54;98347.95;;;11.63;72.39
56825;BME280;42705;50.326;18.772;2023-04-29T22:05:16;98349.83;;;11.57;72.78
56825;BME280;42705;50.326;18.772;2023-04-29T22:10:37;98350.58;;;11.54;72.83
56825;BME280;42705;50.326;18.772;2023-04-29T22:16:01;98356.82;;;11.50;73.01
56825;BME280;42705;50.326;18.772;2023-04-29T22:21:24;98359.04;;;11.49;72.97
56825;BME280;42705;50.326;18.772;2023-04-29T22:26:48;98362.91;;;11.49;73.03
56825;BME280;42705;50.326;18.772;2023-04-29T22:32:09;98367.05;;;11.46;73.03
56825;BME280;42705;50.326;18.772;2023-04-29T22:37:31;98375.17;;;11.43;73.32
56825;BME280;42705;50.326;18.772;2023-04-29T22:42:53;98377.30;;;11.41;73.49
56825;BME280;42705;50.326;18.772;2023-04-29T22:48:15;98379.84;;;11.36;73.39
56825;BME280;42705;50.326;18.772;2023-04-29T22:53:37;98384.81;;;11.34;73.59
56825;BME280;42705;50.326;18.772;2023-04-29T22:58:59;98384.77;;;11.30;73.55
56825;BME280;42705;50.326;18.772;2023-04-29T23:04:21;98385.73;;;11.27;73.77
56825;BME280;42705;50.326;18.772;2023-04-29T23:09:43;98393.23;;;11.26;73.86
56825;BME280;42705;50.326;18.772;2023-04-29T23:15:05;98395.54;;;11.18;73.92
56825;BME280;42705;50.326;18.772;2023-04-29T23:20:27;98396.69;;;11.13;74.38
56825;BME280;42705;50.326;18.772;2023-04-29T23:25:49;98394.23;;;11.08;74.27
56825;BME280;42705;50.326;18.772;2023-04-29T23:31:11;98393.11;;;11.03;74.22
56825;BME280;42705;50.326;18.772;2023-04-29T23:36:33;98396.69;;;11.02;73.89
56825;BME280;42705;50.326;18.772;2023-04-29T23:41:54;98395.35;;;11.02;74.15
56825;BME280;42705;50.326;18.772;2023-04-29T23:47:16;98397.95;;;10.99;74.07
56825;BME280;42705;50.326;18.772;2023-04-29T23:52:38;98402.34;;;10.95;74.29
56825;BME280;42705;50.326;18.772;2023-04-29T23:58:00;98404.06;;;10.92;74.05
